createdAt,value
2018-12-31T00:01:48.736Z,100121.45
2018-12-31T00:04:19.088Z,100123.56
2018-12-31T00:06:49.642Z,100129.56
2018-12-31T00:09:37.018Z,100133.89
2018-12-31T00:12:07.635Z,100137.86
2018-12-31T00:14:37.998Z,100137.03
2018-12-31T00:20:03.028Z,100144.21
2018-12-31T00:22:33.306Z,100142.88
2018-12-31T00:27:53.342Z,100149.73
2018-12-31T00:30:23.575Z,100150.92
2018-12-31T00:32:54.731Z,100158.45
2018-12-31T00:35:24.846Z,100163.30
2018-12-31T00:37:55.133Z,100157.52
2018-12-31T00:40:25.351Z,100159.20
2018-12-31T00:42:59.169Z,100155.16
2018-12-31T00:45:46.696Z,100164.70
2018-12-31T00:48:16.906Z,100167.50
2018-12-31T00:50:47.169Z,100161.16
2018-12-31T00:53:17.393Z,100164.84
2018-12-31T00:58:42.757Z,100174.25
2018-12-31T01:01:13.007Z,100177.12
2018-12-31T01:03:55.360Z,100183.39
2018-12-31T01:06:25.677Z,100191.02
2018-12-31T01:08:55.921Z,100185.16
2018-12-31T01:11:26.269Z,100180.09
2018-12-31T01:13:56.533Z,100179.16
2018-12-31T01:16:26.864Z,100181.95
2018-12-31T01:21:46.646Z,100188.38
2018-12-31T01:24:16.905Z,100190.84
2018-12-31T01:26:47.601Z,100190.73
2018-12-31T01:29:18.244Z,100188.20
2018-12-31T01:31:48.467Z,100182.65
2018-12-31T01:34:18.727Z,100183.30
2018-12-31T01:36:51.003Z,100190.43
2018-12-31T01:39:21.347Z,100184.70
2018-12-31T01:41:51.572Z,100172.56
2018-12-31T01:44:21.814Z,100182.52
2018-12-31T01:46:52.145Z,100183.55
2018-12-31T01:49:24.007Z,100182.87
2018-12-31T01:51:54.233Z,100192.50
2018-12-31T01:54:24.491Z,100185.81
2018-12-31T01:57:00.548Z,100189.16
2018-12-31T01:59:30.849Z,100187.45
2018-12-31T02:02:01.136Z,100192.16
2018-12-31T02:04:42.960Z,100189.23
2018-12-31T02:07:13.529Z,100188.20
2018-12-31T02:09:44.176Z,100185.86
2018-12-31T02:12:14.410Z,100198.34
2018-12-31T02:14:44.831Z,100197.46
2018-12-31T02:17:15.281Z,100192.10
2018-12-31T02:19:45.535Z,100198.87
2018-12-31T02:22:15.825Z,100189.13
2018-12-31T02:24:46.307Z,100191.98
2018-12-31T02:27:16.925Z,100192.27
2018-12-31T02:29:48.808Z,100189.05
2018-12-31T02:32:19.043Z,100200.91
2018-12-31T02:34:49.222Z,100197.80
2018-12-31T02:37:19.453Z,100197.09
2018-12-31T02:39:49.765Z,100213.94
2018-12-31T02:42:19.991Z,100216.28
2018-12-31T02:44:50.589Z,100219.95
2018-12-31T02:47:20.744Z,100213.37
2018-12-31T02:49:51.987Z,100215.92
2018-12-31T02:52:22.270Z,100217.67
2018-12-31T02:54:52.508Z,100218.55
2018-12-31T02:57:22.723Z,100225.81
2018-12-31T02:59:53.337Z,100218.03
2018-12-31T03:02:24.458Z,100212.31
2018-12-31T03:05:06.116Z,100212.56
2018-12-31T03:07:36.308Z,100212.05
2018-12-31T03:10:07.364Z,100210.73
2018-12-31T03:12:37.629Z,100198.52
2018-12-31T03:15:07.929Z,100213.53
2018-12-31T03:17:38.573Z,100207.66
2018-12-31T03:20:08.814Z,100212.89
2018-12-31T03:22:39.359Z,100210.45
2018-12-31T03:25:28.692Z,100210.26
2018-12-31T03:31:07.064Z,100214.35
2018-12-31T03:33:37.264Z,100218.91
2018-12-31T03:36:07.481Z,100217.67
2018-12-31T03:38:37.891Z,100226.97
2018-12-31T03:41:08.471Z,100225.91
2018-12-31T03:43:38.681Z,100220.67
2018-12-31T03:46:09.741Z,100223.91
2018-12-31T03:48:39.946Z,100222.02
2018-12-31T03:51:10.579Z,100222.08
2018-12-31T03:53:40.989Z,100215.51
2018-12-31T03:56:11.227Z,100221.41
2018-12-31T03:58:41.478Z,100226.53
2018-12-31T04:01:11.953Z,100225.12
2018-12-31T04:04:01.618Z,100224.99
2018-12-31T04:11:56.010Z,100234.58
2018-12-31T04:14:27.077Z,100234.20
2018-12-31T04:16:57.854Z,100234.60
2018-12-31T04:19:33.869Z,100234.56
2018-12-31T04:22:04.169Z,100233.86
2018-12-31T04:24:34.352Z,100233.87
2018-12-31T04:27:04.579Z,100234.11
2018-12-31T04:32:35.718Z,100241.02
2018-12-31T04:35:05.993Z,100240.13
2018-12-31T04:37:36.264Z,100236.92
2018-12-31T04:40:06.559Z,100234.59
2018-12-31T04:42:36.827Z,100233.99
2018-12-31T04:45:07.186Z,100235.47
2018-12-31T04:50:19.204Z,100227.88
2018-12-31T04:52:49.487Z,100237.52
2018-12-31T04:55:19.672Z,100235.92
2018-12-31T04:57:51.635Z,100245.80
2018-12-31T05:00:22.276Z,100241.19
2018-12-31T05:02:59.858Z,100239.88
2018-12-31T05:05:30.099Z,100240.73
2018-12-31T05:11:21.869Z,100255.52
2018-12-31T05:13:52.126Z,100251.98
2018-12-31T05:16:22.348Z,100245.13
2018-12-31T05:21:58.256Z,100242.50
2018-12-31T05:24:29.073Z,100245.99
2018-12-31T05:27:01.544Z,100248.91
2018-12-31T05:34:58.472Z,100254.81
2018-12-31T05:37:29.077Z,100257.36
2018-12-31T05:39:59.447Z,100250.37
2018-12-31T05:45:24.492Z,100251.45
2018-12-31T05:48:00.729Z,100250.50
2018-12-31T05:53:17.994Z,100250.41
2018-12-31T05:55:48.101Z,100254.70
2018-12-31T05:58:18.361Z,100260.62
2018-12-31T06:06:39.157Z,100250.73
2018-12-31T06:09:09.642Z,100254.18
2018-12-31T06:11:51.603Z,100258.55
2018-12-31T06:14:21.840Z,100255.30
2018-12-31T06:16:52.131Z,100260.28
2018-12-31T06:19:28.116Z,100261.86
2018-12-31T06:21:58.498Z,100264.44
2018-12-31T06:27:10.584Z,100260.41
2018-12-31T06:29:40.750Z,100266.00
2018-12-31T06:32:11.166Z,100266.67
2018-12-31T06:37:30.716Z,100277.66
2018-12-31T06:40:00.969Z,100274.21
2018-12-31T06:45:26.859Z,100274.69
2018-12-31T06:47:57.188Z,100286.52
2018-12-31T06:50:27.890Z,100288.41
2018-12-31T06:52:58.148Z,100294.13
2018-12-31T06:55:28.397Z,100300.12
2018-12-31T06:57:58.635Z,100303.50
2018-12-31T07:03:23.839Z,100313.64
2018-12-31T07:05:54.270Z,100320.20
2018-12-31T07:11:17.953Z,100310.36
2018-12-31T07:13:48.248Z,100312.63
2018-12-31T07:16:18.992Z,100313.61
2018-12-31T07:18:49.224Z,100320.88
2018-12-31T07:24:14.297Z,100331.85
2018-12-31T07:26:44.648Z,100336.55
2018-12-31T07:29:14.899Z,100343.32
2018-12-31T07:31:45.177Z,100342.81
2018-12-31T07:36:58.438Z,100344.30
2018-12-31T07:39:28.697Z,100338.42
2018-12-31T07:41:58.901Z,100346.61
2018-12-31T07:44:29.152Z,100342.67
2018-12-31T07:46:59.431Z,100345.87
2018-12-31T07:49:29.610Z,100346.34
2018-12-31T07:52:00.835Z,100350.63
2018-12-31T07:54:31.026Z,100342.98
2018-12-31T07:57:01.309Z,100350.87
2018-12-31T08:02:26.450Z,100341.47
2018-12-31T08:04:56.739Z,100333.87
2018-12-31T08:07:26.969Z,100335.64
2018-12-31T08:09:57.424Z,100342.08
2018-12-31T08:12:28.177Z,100348.50
2018-12-31T08:14:59.145Z,100348.83
2018-12-31T08:20:11.693Z,100348.87
2018-12-31T08:25:33.427Z,100347.48
2018-12-31T08:28:22.600Z,100359.91
2018-12-31T08:33:35.095Z,100361.85
2018-12-31T08:36:22.458Z,100361.97
2018-12-31T08:38:52.849Z,100353.56
2018-12-31T08:41:23.152Z,100357.83
2018-12-31T08:46:36.828Z,100362.63
2018-12-31T08:49:07.155Z,100353.84
2018-12-31T08:51:37.806Z,100361.14
2018-12-31T08:54:08.125Z,100361.06
2018-12-31T08:56:38.357Z,100352.72
2018-12-31T08:59:08.629Z,100356.20
2018-12-31T09:01:38.918Z,100354.64
2018-12-31T09:06:50.110Z,100357.22
2018-12-31T09:09:20.349Z,100358.30
2018-12-31T09:11:50.547Z,100358.64
2018-12-31T09:17:28.718Z,100359.79
2018-12-31T09:19:59.379Z,100358.41
2018-12-31T09:22:29.901Z,100353.67
2018-12-31T09:25:00.535Z,100361.11
2018-12-31T09:27:30.858Z,100360.57
2018-12-31T09:32:50.938Z,100356.41
2018-12-31T09:35:22.009Z,100365.61
2018-12-31T09:37:52.318Z,100362.73
2018-12-31T09:40:22.521Z,100360.16
2018-12-31T09:45:48.566Z,100348.86
2018-12-31T09:51:35.542Z,100340.56
2018-12-31T09:54:05.817Z,100340.35
2018-12-31T09:56:36.124Z,100337.76
2018-12-31T09:59:06.807Z,100334.36
2018-12-31T10:04:31.918Z,100339.08
2018-12-31T10:07:02.233Z,100338.89
2018-12-31T10:09:32.461Z,100333.68
2018-12-31T10:12:03.193Z,100331.43
2018-12-31T10:14:44.522Z,100337.42
2018-12-31T10:17:14.754Z,100345.75
2018-12-31T10:19:44.961Z,100342.06
2018-12-31T10:22:15.333Z,100332.80
2018-12-31T10:24:45.574Z,100328.09
2018-12-31T10:27:21.612Z,100338.66
2018-12-31T10:29:51.853Z,100335.89
2018-12-31T10:32:22.142Z,100332.86
2018-12-31T10:34:52.525Z,100332.28
2018-12-31T10:40:06.299Z,100329.48
2018-12-31T10:42:36.585Z,100322.58
2018-12-31T10:45:06.956Z,100325.05
2018-12-31T10:47:37.227Z,100326.43
2018-12-31T10:50:07.706Z,100322.96
2018-12-31T10:55:33.503Z,100314.11
2018-12-31T10:58:04.104Z,100313.97
2018-12-31T11:06:26.497Z,100305.18
2018-12-31T11:11:39.364Z,100299.88
2018-12-31T11:14:09.589Z,100308.54
2018-12-31T11:16:39.992Z,100303.75
2018-12-31T11:19:10.307Z,100309.80
2018-12-31T11:21:40.584Z,100305.84
2018-12-31T11:24:12.847Z,100306.73
2018-12-31T11:26:44.876Z,100304.20
2018-12-31T11:29:15.334Z,100302.34
2018-12-31T11:31:45.972Z,100305.03
2018-12-31T11:34:16.245Z,100309.50
2018-12-31T11:36:46.979Z,100306.13
2018-12-31T11:39:17.324Z,100306.58
2018-12-31T11:44:29.888Z,100300.12
2018-12-31T11:47:00.114Z,100305.64
2018-12-31T11:49:30.359Z,100306.88
2018-12-31T11:52:00.575Z,100302.29
2018-12-31T11:54:30.930Z,100290.58
2018-12-31T11:57:14.451Z,100291.86
2018-12-31T12:02:27.565Z,100292.66
2018-12-31T12:04:58.305Z,100278.27
2018-12-31T12:07:29.112Z,100276.94
2018-12-31T12:10:06.811Z,100283.50
2018-12-31T12:12:38.976Z,100278.58
2018-12-31T12:15:09.319Z,100281.20
2018-12-31T12:17:41.396Z,100278.88
2018-12-31T12:20:11.625Z,100279.34
2018-12-31T12:22:41.850Z,100276.33
2018-12-31T12:25:12.120Z,100272.98
2018-12-31T12:28:02.083Z,100272.50
2018-12-31T12:30:32.349Z,100274.87
2018-12-31T12:33:02.686Z,100267.48
2018-12-31T12:35:33.043Z,100269.41
2018-12-31T12:38:03.336Z,100282.33
2018-12-31T12:43:30.311Z,100268.59
2018-12-31T12:46:00.589Z,100271.51
2018-12-31T12:48:31.591Z,100280.16
2018-12-31T12:51:01.890Z,100283.21
2018-12-31T12:53:34.598Z,100275.67
2018-12-31T12:56:04.871Z,100278.68
2018-12-31T12:58:36.414Z,100292.85
2018-12-31T13:04:02.120Z,100279.59
2018-12-31T13:09:26.581Z,100282.73
2018-12-31T13:11:56.910Z,100278.74
2018-12-31T13:14:27.368Z,100282.28
2018-12-31T13:16:57.902Z,100275.09
2018-12-31T13:19:34.304Z,100284.16
2018-12-31T13:24:47.086Z,100283.51
2018-12-31T13:27:17.504Z,100281.77
2018-12-31T13:32:30.115Z,100284.93
2018-12-31T13:35:00.443Z,100281.52
2018-12-31T13:37:30.723Z,100282.00
2018-12-31T13:40:06.706Z,100285.73
2018-12-31T13:42:44.877Z,100283.19
2018-12-31T13:45:15.177Z,100279.48
2018-12-31T13:50:42.037Z,100275.66
2018-12-31T13:53:12.414Z,100277.09
2018-12-31T13:58:29.884Z,100279.36
2018-12-31T14:03:41.792Z,100279.91
2018-12-31T14:06:13.702Z,100281.67
2018-12-31T14:08:43.913Z,100275.33
2018-12-31T14:11:14.289Z,100279.20
2018-12-31T14:13:44.543Z,100275.81
2018-12-31T14:16:14.832Z,100281.70
2018-12-31T14:18:45.303Z,100274.39
2018-12-31T14:21:15.668Z,100280.06
2018-12-31T14:23:46.117Z,100276.23
2018-12-31T14:26:16.406Z,100287.95
2018-12-31T14:28:46.648Z,100282.94
2018-12-31T14:31:16.914Z,100283.22
2018-12-31T14:36:55.708Z,100279.86
2018-12-31T14:39:46.004Z,100283.66
2018-12-31T14:42:22.388Z,100281.31
2018-12-31T14:44:52.670Z,100289.56
2018-12-31T14:47:22.969Z,100291.70
2018-12-31T14:49:53.254Z,100296.36
2018-12-31T14:52:23.547Z,100305.97
2018-12-31T14:57:52.944Z,100303.33
2018-12-31T15:00:23.217Z,100297.09
2018-12-31T15:02:53.489Z,100301.87
2018-12-31T15:05:23.748Z,100302.00
2018-12-31T15:07:54.290Z,100307.50
2018-12-31T15:10:30.434Z,100306.13
2018-12-31T15:13:00.888Z,100308.06
2018-12-31T15:15:31.544Z,100312.92
2018-12-31T15:18:02.105Z,100302.22
2018-12-31T15:23:21.776Z,100305.13
2018-12-31T15:25:52.059Z,100311.47
2018-12-31T15:28:22.497Z,100311.41
2018-12-31T15:30:52.714Z,100303.72
2018-12-31T15:33:22.962Z,100303.72
2018-12-31T15:35:53.190Z,100306.37
2018-12-31T15:38:23.435Z,100307.42
2018-12-31T15:43:35.425Z,100304.45
2018-12-31T15:46:05.813Z,100311.73
2018-12-31T15:48:36.069Z,100312.52
2018-12-31T15:51:06.296Z,100309.39
2018-12-31T15:53:36.812Z,100306.26
2018-12-31T15:56:07.083Z,100303.27
2018-12-31T15:58:37.345Z,100310.01
2018-12-31T16:01:07.769Z,100315.78
2018-12-31T16:03:37.997Z,100304.34
2018-12-31T16:06:08.910Z,100304.09
2018-12-31T16:08:39.327Z,100300.57
2018-12-31T16:14:39.978Z,100295.34
2018-12-31T16:17:16.987Z,100294.69
2018-12-31T16:19:48.772Z,100304.08
2018-12-31T16:25:08.451Z,100307.37
2018-12-31T16:27:38.719Z,100311.16
2018-12-31T16:30:09.245Z,100303.48
2018-12-31T16:32:39.473Z,100309.77
2018-12-31T16:35:09.716Z,100310.65
2018-12-31T16:37:41.715Z,100316.77
2018-12-31T16:40:11.990Z,100310.30
2018-12-31T16:42:42.324Z,100300.65
2018-12-31T16:45:12.547Z,100303.86
2018-12-31T16:47:43.263Z,100309.09
2018-12-31T16:50:13.504Z,100304.05
2018-12-31T16:52:44.168Z,100303.74
2018-12-31T16:55:14.412Z,100302.42
2018-12-31T17:03:41.828Z,100302.72
2018-12-31T17:09:00.178Z,100303.17
2018-12-31T17:11:30.435Z,100299.57
2018-12-31T17:14:00.679Z,100302.08
2018-12-31T17:16:30.909Z,100302.30
2018-12-31T17:19:06.643Z,100308.95
2018-12-31T17:21:36.910Z,100296.66
2018-12-31T17:24:26.354Z,100293.27
2018-12-31T17:27:08.327Z,100295.39
2018-12-31T17:29:39.316Z,100292.13
2018-12-31T17:32:11.577Z,100298.19
2018-12-31T17:34:41.813Z,100295.55
2018-12-31T17:37:12.114Z,100296.88
2018-12-31T17:39:42.333Z,100302.08
2018-12-31T17:42:12.577Z,100301.14
2018-12-31T17:47:37.653Z,100304.72
2018-12-31T17:50:29.050Z,100304.18
2018-12-31T17:52:59.323Z,100296.80
2018-12-31T17:55:29.529Z,100299.73
2018-12-31T17:57:59.748Z,100297.63
2018-12-31T18:00:30.333Z,100292.53
2018-12-31T18:03:00.604Z,100284.44
2018-12-31T18:05:30.853Z,100280.30
2018-12-31T18:08:01.123Z,100283.88
2018-12-31T18:10:31.403Z,100283.55
2018-12-31T18:13:01.893Z,100280.67
2018-12-31T18:15:32.229Z,100277.37
2018-12-31T18:21:07.429Z,100266.21
2018-12-31T18:23:37.721Z,100268.34
2018-12-31T18:26:07.998Z,100265.53
2018-12-31T18:28:50.291Z,100269.80
2018-12-31T18:31:20.560Z,100274.66
2018-12-31T18:33:50.822Z,100282.61
2018-12-31T18:36:31.955Z,100285.81
2018-12-31T18:39:02.484Z,100286.19
2018-12-31T18:44:14.658Z,100290.94
2018-12-31T18:46:45.210Z,100288.40
2018-12-31T18:49:15.429Z,100288.13
2018-12-31T18:54:34.995Z,100287.05
2018-12-31T18:57:24.646Z,100290.28
2018-12-31T18:59:54.954Z,100282.47
2018-12-31T19:02:25.400Z,100280.64
2018-12-31T19:04:57.337Z,100279.77
2018-12-31T19:07:33.781Z,100281.47
2018-12-31T19:10:04.202Z,100285.50
2018-12-31T19:12:55.211Z,100288.31
2018-12-31T19:15:25.441Z,100288.53
2018-12-31T19:23:39.786Z,100293.42
2018-12-31T19:26:10.325Z,100289.78
2018-12-31T19:28:40.747Z,100287.13
2018-12-31T19:33:58.072Z,100274.46
2018-12-31T19:36:28.373Z,100260.55
2018-12-31T19:38:58.560Z,100261.89
2018-12-31T19:41:28.909Z,100260.44
2018-12-31T19:43:59.108Z,100254.67
2018-12-31T19:49:27.043Z,100259.39
2018-12-31T19:51:59.223Z,100259.12
2018-12-31T19:54:30.090Z,100257.50
2018-12-31T19:57:00.311Z,100264.84
2018-12-31T19:59:30.572Z,100263.09
2018-12-31T20:02:00.898Z,100267.88
2018-12-31T20:07:33.039Z,100263.38
2018-12-31T20:10:03.311Z,100252.94
2018-12-31T20:12:41.005Z,100256.91
2018-12-31T20:15:11.301Z,100254.67
2018-12-31T20:17:41.583Z,100259.80
2018-12-31T20:20:11.842Z,100251.00
2018-12-31T20:22:42.565Z,100254.97
2018-12-31T20:25:31.908Z,100252.89
2018-12-31T20:28:02.191Z,100254.58
2018-12-31T20:30:32.490Z,100253.75
2018-12-31T20:33:02.983Z,100255.80
2018-12-31T20:35:33.229Z,100251.38
2018-12-31T20:41:03.508Z,100243.50
2018-12-31T20:43:33.885Z,100236.52
2018-12-31T20:46:04.257Z,100236.28
2018-12-31T20:48:34.794Z,100238.42
2018-12-31T20:51:05.190Z,100245.58
2018-12-31T20:56:16.895Z,100233.17
2018-12-31T21:01:29.407Z,100225.70
2018-12-31T21:09:34.052Z,100217.83
2018-12-31T21:12:04.455Z,100230.34
2018-12-31T21:14:35.036Z,100232.73
2018-12-31T21:17:05.299Z,100226.17
2018-12-31T21:19:54.840Z,100214.48
2018-12-31T21:22:25.157Z,100218.25
2018-12-31T21:25:14.900Z,100217.13
2018-12-31T21:27:45.142Z,100212.08
2018-12-31T21:33:18.028Z,100211.84
2018-12-31T21:38:31.368Z,100206.97
2018-12-31T21:41:01.618Z,100200.16
2018-12-31T21:43:32.017Z,100195.83
2018-12-31T21:46:02.469Z,100194.36
2018-12-31T21:48:33.154Z,100194.61
2018-12-31T21:51:03.435Z,100191.52
2018-12-31T21:56:15.470Z,100192.53
2018-12-31T21:58:45.867Z,100185.11
2018-12-31T22:01:16.717Z,100184.34
2018-12-31T22:04:08.117Z,100184.59
2018-12-31T22:06:38.442Z,100183.22
2018-12-31T22:09:09.176Z,100174.63
2018-12-31T22:11:39.412Z,100171.52
2018-12-31T22:14:09.642Z,100172.50
2018-12-31T22:16:39.966Z,100180.17
2018-12-31T22:19:10.244Z,100170.47
2018-12-31T22:21:40.560Z,100169.48
2018-12-31T22:26:57.422Z,100157.16
2018-12-31T22:29:27.724Z,100155.09
2018-12-31T22:31:58.346Z,100155.09
2018-12-31T22:39:54.269Z,100144.47
2018-12-31T22:42:24.627Z,100139.13
2018-12-31T22:44:54.871Z,100137.76
2018-12-31T22:50:09.179Z,100129.87
2018-12-31T22:52:39.503Z,100126.46
2018-12-31T22:57:58.982Z,100126.72
2018-12-31T23:03:31.448Z,100116.19
2018-12-31T23:06:22.706Z,100111.95
2018-12-31T23:08:52.971Z,100110.05
2018-12-31T23:11:23.510Z,100113.03
2018-12-31T23:13:53.868Z,100110.39
2018-12-31T23:16:27.562Z,100111.97
2018-12-31T23:22:12.398Z,100099.95
2018-12-31T23:27:25.210Z,100094.87
2018-12-31T23:29:55.509Z,100097.52
2018-12-31T23:32:25.756Z,100092.31
2018-12-31T23:35:08.149Z,100089.58
2018-12-31T23:37:40.700Z,100094.19
2018-12-31T23:43:13.210Z,100086.12
2018-12-31T23:45:43.449Z,100082.75
2018-12-31T23:48:13.789Z,100086.73
2018-12-31T23:50:44.046Z,100077.80
2018-12-31T23:56:09.642Z,100082.88
2018-12-31T23:58:39.948Z,100074.64
